Time;durP1;ratioP1;P1;durP2;ratioP2;P2;SDS_P1;SDS_P2;PMS_P1;PMS_P2;Temp;Humidity;BMP_temperature;BMP_pressure;BME280_temperature;BME280_humidity;BME280_pressure;Samples;Min_cycle;Max_cycle;Signal;HPM_P1;HPM_P2
2022/09/26 07:42:06;;;;;;;25.65;18.12;;;;;;;11.44;100.00;99352.14;1704185;81;39097;-73
2022/09/26 07:44:34;;;;;;;14.70;13.08;;;;;;;11.49;100.00;99348.94;1681542;84;21038;-72
2022/09/26 07:52:28;;;;;;;16.60;11.85;;;;;;;11.71;100.00;99336.61;1707513;83;20942;-73
2022/09/26 07:55:18;;;;;;;12.88;11.50;;;;;;;11.78;100.00;99340.71;1728038;82;21010;-70
2022/09/26 07:57:48;;;;;;;22.62;12.58;;;;;;;11.85;100.00;99328.84;1745278;82;21727;-69
2022/09/26 08:00:22;;;;;;;13.70;11.97;;;;;;;11.87;100.00;99324.83;1740223;82;22349;-69
2022/09/26 08:02:51;;;;;;;12.25;11.00;;;;;;;11.91;100.00;99322.40;1748174;81;20974;-68
2022/09/26 08:05:23;;;;;;;12.80;11.50;;;;;;;11.92;99.77;99325.37;1748281;82;21549;-67
2022/09/26 08:07:50;;;;;;;12.85;11.20;;;;;;;11.94;99.56;99326.70;1750138;81;21021;-69
2022/09/26 08:10:28;;;;;;;13.13;11.70;;;;;;;11.99;99.42;99324.59;1641451;87;21138;-67
2022/09/26 08:13:06;;;;;;;16.65;12.35;;;;;;;12.05;99.26;99322.14;1620258;86;21419;-67
2022/09/26 08:15:34;;;;;;;12.98;11.70;;;;;;;12.10;98.84;99312.72;1690229;84;21691;-69
2022/09/26 08:18:04;;;;;;;15.25;11.45;;;;;;;12.12;98.18;99313.27;1748182;81;21097;-70
2022/09/26 08:20:30;;;;;;;13.28;11.83;;;;;;;12.18;98.03;99314.33;1747810;82;22664;-69
2022/09/26 08:22:57;;;;;;;14.25;12.70;;;;;;;12.23;97.79;99321.61;1729248;82;21545;-69
2022/09/26 08:25:24;;;;;;;14.75;12.40;;;;;;;12.31;97.69;99319.73;1769666;80;21545;-67
2022/09/26 08:28:11;;;;;;;15.38;11.75;;;;;;;12.36;97.36;99317.05;1774669;80;21617;-70
2022/09/26 08:30:43;;;;;;;16.02;11.70;;;;;;;12.39;96.83;99317.03;1742066;81;21053;-68
2022/09/26 08:33:11;;;;;;;28.90;20.45;;;;;;;12.36;96.25;99317.05;1747447;82;21016;-71
2022/09/26 08:35:38;;;;;;;16.25;14.10;;;;;;;12.39;96.18;99314.33;1749458;82;21135;-69
2022/09/26 08:38:16;;;;;;;19.17;12.33;;;;;;;12.43;95.95;99311.36;1745308;82;21838;-69
2022/09/26 08:41:20;;;;;;;16.40;12.35;;;;;;;12.46;95.88;99308.14;1728319;82;21017;-68
2022/09/26 08:44:51;;;;;;;13.35;12.05;;;;;;;12.50;95.64;99302.47;1708769;81;21010;-70
2022/09/26 08:47:48;;;;;;;13.68;12.43;;;;;;;12.56;95.06;99296.80;1658678;83;21010;-69
2022/09/26 08:50:24;;;;;;;11.83;10.03;;;;;;;12.60;94.29;99302.45;1694436;83;21183;-70
2022/09/26 08:53:05;;;;;;;14.30;11.20;;;;;;;12.63;93.86;99297.85;1734069;82;21319;-70
2022/09/26 08:55:41;;;;;;;12.20;11.00;;;;;;;12.63;93.33;99304.59;1743596;81;21109;-70
2022/09/26 08:58:18;;;;;;;13.22;11.22;;;;;;;12.63;92.75;99309.45;1744237;82;21018;-72
2022/09/26 09:00:47;;;;;;;13.08;11.88;;;;;;;12.65;92.61;99307.31;1740540;82;21017;-71
2022/09/26 09:03:25;;;;;;;17.98;12.60;;;;;;;12.65;92.42;99308.66;1744629;80;21041;-70
2022/09/26 09:06:04;;;;;;;17.50;11.78;;;;;;;12.66;92.41;99317.00;1703910;83;21163;-73
2022/09/26 09:08:42;;;;;;;13.65;11.38;;;;;;;12.72;92.08;99323.20;1670235;83;21094;-69
2022/09/26 09:11:56;;;;;;;11.70;10.53;;;;;;;12.76;91.86;99318.08;1678098;85;21621;-71
2022/09/26 09:14:52;;;;;;;13.65;11.75;;;;;;;12.83;91.88;99322.10;1708987;83;21031;-72
2022/09/26 09:17:40;;;;;;;11.63;10.53;;;;;;;12.84;91.36;99325.08;1668157;84;21134;-70
2022/09/26 09:20:44;;;;;;;11.63;10.53;;;;;;;12.85;90.96;99318.60;1709493;82;21108;-70
2022/09/26 09:23:47;;;;;;;13.43;10.82;;;;;;;12.87;90.66;99312.38;1710551;82;21015;-66
2022/09/26 09:26:43;;;;;;;18.00;12.05;;;;;;;12.90;90.28;99305.63;1702483;83;21591;-69
2022/09/26 09:29:44;;;;;;;14.63;11.80;;;;;;;13.00;90.47;99307.73;1683891;85;21019;-71
2022/09/26 09:32:40;;;;;;;12.68;11.12;;;;;;;13.14;89.92;99305.29;1656138;83;21057;-70
2022/09/26 09:35:18;;;;;;;16.90;15.20;;;;;;;13.26;89.51;99318.48;1695285;83;21181;-70
2022/09/26 09:37:56;;;;;;;12.82;11.63;;;;;;;13.34;89.01;99315.20;1659015;83;21619;-69
2022/09/26 09:40:36;;;;;;;14.13;11.25;;;;;;;13.41;87.94;99317.08;1652317;84;21124;-70
2022/09/26 09:43:07;;;;;;;13.30;11.90;;;;;;;13.47;87.71;99321.38;1734182;82;20974;-69
2022/09/26 09:45:42;;;;;;;13.95;11.97;;;;;;;13.49;86.88;99313.25;1746984;82;21095;-69
2022/09/26 09:48:11;;;;;;;12.63;11.50;;;;;;;13.53;86.50;99310.25;1738798;82;21134;-69
2022/09/26 09:51:02;;;;;;;13.78;11.68;;;;;;;13.60;86.02;99315.36;1747886;82;21014;-70
2022/09/26 09:54:11;;;;;;;12.33;11.10;;;;;;;13.65;85.74;99317.22;1742005;82;20982;-70
2022/09/26 09:56:51;;;;;;;13.55;10.43;;;;;;;13.64;84.48;99316.41;1748009;82;21554;-73
2022/09/26 09:59:51;;;;;;;13.32;12.03;;;;;;;13.66;84.31;99316.95;1739466;82;21134;-71
2022/09/26 10:02:47;;;;;;;11.55;10.45;;;;;;;13.73;84.32;99312.57;1748040;82;21292;-73
2022/09/26 10:05:40;;;;;;;12.23;10.90;;;;;;;13.78;83.76;99304.44;1750389;81;21024;-71
2022/09/26 10:08:13;;;;;;;12.30;10.98;;;;;;;13.76;83.55;99299.33;1718538;83;21126;-70
2022/09/26 10:11:13;;;;;;;19.35;11.00;;;;;;;13.79;83.45;99293.89;1719866;82;21052;-72
2022/09/26 10:13:44;;;;;;;11.63;10.53;;;;;;;13.82;83.17;99301.44;1709659;83;21092;-70
2022/09/26 10:16:18;;;;;;;15.50;12.68;;;;;;;13.85;83.43;99295.48;1710513;83;21136;-71
2022/09/26 10:19:07;;;;;;;10.53;9.58;;;;;;;13.87;83.23;99288.70;1739534;82;21042;-71
2022/09/26 10:21:41;;;;;;;11.28;10.18;;;;;;;13.92;83.31;99286.50;1746870;82;21565;-72
2022/09/26 10:24:40;;;;;;;10.32;9.35;;;;;;;13.97;82.81;99284.57;1745997;82;21081;-69
2022/09/26 10:27:21;;;;;;;12.43;10.68;;;;;;;14.04;82.73;99284.80;1742813;82;21023;-69
2022/09/26 10:29:58;;;;;;;11.80;10.23;;;;;;;14.11;82.59;99285.27;1753612;81;21223;-71
2022/09/26 10:32:26;;;;;;;13.32;8.25;;;;;;;14.20;81.48;99282.22;1734850;82;20971;-67
2022/09/26 10:35:19;;;;;;;8.78;7.97;;;;;;;14.26;80.72;99271.09;1745128;81;21083;-70
2022/09/26 10:38:05;;;;;;;11.30;8.88;;;;;;;14.42;80.71;99275.04;1703341;83;21229;-74
2022/09/26 10:40:47;;;;;;;12.53;9.95;;;;;;;14.58;80.55;99267.83;1717989;83;21122;-73
2022/09/26 10:43:36;;;;;;;12.60;8.67;;;;;;;14.71;79.34;99258.23;1738027;82;21086;-75
2022/09/26 10:46:16;;;;;;;9.28;8.38;;;;;;;14.83;79.07;99256.73;1745138;81;21666;-76
2022/09/26 10:48:55;;;;;;;8.85;6.62;;;;;;;14.99;78.29;99244.38;1748434;81;20970;-75
2022/09/26 10:51:43;;;;;;;9.53;8.63;;;;;;;15.16;78.08;99246.04;1721094;81;21628;-76
2022/09/26 10:54:17;;;;;;;9.90;8.38;;;;;;;15.35;76.59;99244.73;1704361;84;21032;-75
2022/09/26 10:56:49;;;;;;;13.90;8.50;;;;;;;15.47;75.52;99237.78;1704580;84;21558;-67
2022/09/26 10:59:17;;;;;;;8.18;7.12;;;;;;;15.62;75.14;99239.49;1682054;84;20966;-71
2022/09/26 11:01:50;;;;;;;10.40;9.00;;;;;;;15.79;74.10;99240.31;1704130;84;21069;-68
2022/09/26 11:07:01;;;;;;;11.28;8.73;;;;;;;16.19;72.56;99235.59;1620834;84;20213;-67
2022/09/26 11:09:30;;;;;;;8.18;7.45;;;;;;;16.32;71.18;99235.36;1701901;84;21134;-69
2022/09/26 11:12:27;;;;;;;8.10;7.30;;;;;;;16.39;70.12;99228.45;1703462;84;21076;-67
2022/09/26 11:14:58;;;;;;;7.45;6.80;;;;;;;16.45;68.76;99223.16;1704606;84;20998;-70
2022/09/26 11:17:46;;;;;;;8.15;6.97;;;;;;;16.57;68.17;99223.50;1704298;84;21049;-75
2022/09/26 11:20:40;;;;;;;11.35;8.45;;;;;;;16.74;68.32;99222.14;1704712;84;21061;-73
2022/09/26 11:23:21;;;;;;;8.38;7.65;;;;;;;16.90;68.10;99225.59;1702697;82;21232;-73
2022/09/26 11:26:38;;;;;;;8.70;7.87;;;;;;;17.07;67.45;99224.99;1698312;84;21073;-71
2022/09/26 11:29:33;;;;;;;10.93;8.28;;;;;;;17.18;66.92;99218.77;1699058;84;21094;-71
2022/09/26 11:32:04;;;;;;;7.10;6.40;;;;;;;17.22;66.26;99209.70;1699918;84;21042;-72
2022/09/26 11:34:53;;;;;;;7.95;7.15;;;;;;;17.31;65.98;99209.80;1677751;84;21050;-77
2022/09/26 11:37:44;;;;;;;8.40;7.60;;;;;;;17.40;65.82;99209.32;1703227;84;22178;-72
2022/09/26 11:40:54;;;;;;;10.75;8.25;;;;;;;17.47;65.60;99205.61;1685694;84;21067;-69
2022/09/26 11:43:53;;;;;;;9.40;7.45;;;;;;;17.53;65.11;99210.38;1683849;84;21059;-68
2022/09/26 11:47:03;;;;;;;8.95;7.62;;;;;;;17.54;64.80;99209.28;1708527;83;21047;-68
2022/09/26 11:49:49;;;;;;;15.60;7.87;;;;;;;17.52;64.96;99206.05;1654054;86;21070;-70
2022/09/26 11:52:45;;;;;;;9.05;8.15;;;;;;;17.49;64.84;99211.56;1649702;86;22375;-71
2022/09/26 11:55:23;;;;;;;;;;;;;;;17.51;64.85;99213.95;1698427;82;22172;-70
2022/09/26 11:58:18;;;;;;;14.90;8.43;;;;;;;17.46;64.34;99214.88;1689219;83;20174;-71
2022/09/26 12:01:11;;;;;;;7.78;6.92;;;;;;;17.44;64.83;99216.56;1697499;83;20998;-70
2022/09/26 12:04:10;;;;;;;12.30;7.05;;;;;;;17.51;65.00;99213.40;1654215;85;21071;-71
2022/09/26 12:07:06;;;;;;;9.68;7.20;;;;;;;17.58;64.76;99215.16;1687249;83;21466;-70
2022/09/26 12:09:51;;;;;;;11.45;7.50;;;;;;;17.60;64.02;99213.53;1691856;83;21545;-73
2022/09/26 12:12:40;;;;;;;11.08;7.42;;;;;;;17.57;62.92;99204.02;1704686;83;22229;-70
2022/09/26 12:15:39;;;;;;;13.50;8.15;;;;;;;17.58;63.32;99202.11;1718544;82;21351;-71
2022/09/26 12:18:33;;;;;;;10.50;8.38;;;;;;;17.59;63.48;99203.20;1695595;83;21074;-71
2022/09/26 12:21:37;;;;;;;11.48;7.53;;;;;;;17.64;63.82;99203.64;1712265;83;21281;-71
2022/09/26 12:24:12;;;;;;;9.13;7.72;;;;;;;17.72;63.27;99202.89;1684815;85;21132;-70
2022/09/26 12:27:01;;;;;;;10.03;7.90;;;;;;;17.74;63.27;99203.40;1705546;82;21044;-69
2022/09/26 12:29:47;;;;;;;13.35;8.45;;;;;;;17.74;63.69;99193.88;1715370;83;21134;-71
2022/09/26 12:32:37;;;;;;;10.32;7.97;;;;;;;17.76;63.69;99192.44;1715778;82;21087;-73
2022/09/26 12:35:28;;;;;;;15.70;10.08;;;;;;;17.77;64.18;99195.42;1716583;83;21154;-70
2022/09/26 12:38:34;;;;;;;18.20;10.30;;;;;;;17.76;64.68;99193.80;1690815;84;21496;-67
2022/09/26 12:41:37;;;;;;;17.77;10.53;;;;;;;17.71;65.11;99193.92;1689440;84;21480;-72
2022/09/26 12:44:41;;;;;;;19.82;12.93;;;;;;;17.67;64.59;99192.13;1695546;83;21609;-74
2022/09/26 12:47:20;;;;;;;;;;;;;;;17.64;64.82;99188.68;1741072;82;21593;-70
2022/09/26 12:50:18;;;;;;;16.57;9.95;;;;;;;17.69;64.71;99185.28;1734868;82;20996;-73
2022/09/26 12:53:03;;;;;;;17.65;11.10;;;;;;;17.74;64.71;99180.28;1714759;82;21062;-77
2022/09/26 12:55:40;;;;;;;23.10;10.53;;;;;;;17.77;64.58;99181.81;1711299;82;20938;-74
2022/09/26 12:58:42;;;;;;;14.60;8.18;;;;;;;17.79;64.15;99180.16;1696571;84;21018;-73
2022/09/26 13:01:37;;;;;;;8.25;6.83;;;;;;;17.82;64.40;99181.70;1728948;82;21923;-77
2022/09/26 13:04:42;;;;;;;10.78;6.33;;;;;;;17.88;64.82;99172.05;1720199;82;21105;-72
2022/09/26 13:07:51;;;;;;;9.95;6.87;;;;;;;17.90;65.13;99176.60;1738048;82;21106;-72
2022/09/26 13:10:29;;;;;;;14.68;8.08;;;;;;;17.83;65.76;99172.42;1693614;82;21044;-75
2022/09/26 13:13:22;;;;;;;12.63;7.50;;;;;;;17.82;66.24;99168.64;1662140;85;21077;-73
2022/09/26 13:16:47;;;;;;;11.57;6.60;;;;;;;17.81;66.36;99176.55;1729752;82;21511;-71
2022/09/26 13:19:34;;;;;;;11.70;8.28;;;;;;;17.78;66.67;99174.46;1737764;82;21176;-75
2022/09/26 13:22:26;;;;;;;8.43;7.37;;;;;;;17.76;66.46;99174.77;1728024;82;20958;-75
2022/09/26 13:25:17;;;;;;;10.05;7.00;;;;;;;17.78;66.49;99178.55;1731942;82;21569;-70
2022/09/26 13:28:02;;;;;;;11.10;7.55;;;;;;;17.73;66.79;99171.87;1714167;82;21018;-77
2022/09/26 13:30:34;;;;;;;18.92;8.53;;;;;;;17.69;66.69;99171.69;1696672;82;21514;-69
2022/09/26 13:33:36;;;;;;;9.20;7.12;;;;;;;17.70;66.73;99176.55;1710500;82;21772;-77
2022/09/26 13:36:03;;;;;;;11.43;7.08;;;;;;;17.69;67.13;99179.84;1736985;82;21026;-74
2022/09/26 13:38:52;;;;;;;6.95;6.25;;;;;;;17.61;67.23;99175.12;1733819;82;21053;-70
2022/09/26 13:41:41;;;;;;;8.90;7.33;;;;;;;17.56;67.57;99177.94;1737658;82;21081;-75
2022/09/26 13:44:56;;;;;;;15.55;12.03;;;;;;;17.57;67.70;99181.46;1725767;82;20983;-69
2022/09/26 13:47:48;;;;;;;7.67;7.08;;;;;;;17.58;67.52;99173.00;1717627;83;21162;-70
2022/09/26 13:50:40;;;;;;;8.95;7.62;;;;;;;17.57;66.90;99175.47;1748056;82;20959;-79
2022/09/26 13:53:39;;;;;;;17.40;7.80;;;;;;;17.54;67.06;99172.02;1748030;82;21005;-75
2022/09/26 13:56:37;;;;;;;14.80;9.75;;;;;;;17.54;67.96;99167.94;1737823;81;21018;-76
2022/09/26 13:59:18;;;;;;;8.90;8.00;;;;;;;17.57;68.00;99166.50;1729389;82;21073;-76
2022/09/26 14:02:25;;;;;;;9.40;8.50;;;;;;;17.56;68.06;99159.45;1694787;84;22743;-69
2022/09/26 14:04:55;;;;;;;12.93;9.58;;;;;;;17.47;68.18;99167.55;1698168;84;21535;-72
2022/09/26 14:10:39;;;;;;;11.53;9.78;;;;;;;17.34;68.75;99161.61;1695897;84;21062;-73
2022/09/26 14:13:17;;;;;;;;;;;;;;;17.33;69.05;99164.88;1707408;84;21086;-74
2022/09/26 14:15:55;;;;;;;12.90;9.85;;;;;;;17.33;69.32;99159.45;1698479;84;21153;-75
2022/09/26 14:18:46;;;;;;;16.90;9.28;;;;;;;17.33;69.01;99158.63;1696148;84;21023;-73
2022/09/26 14:21:22;;;;;;;15.10;7.60;;;;;;;17.32;69.43;99157.83;1702852;84;21030;-71
2022/09/26 14:23:50;;;;;;;10.00;6.60;;;;;;;17.30;68.39;99152.47;1703595;84;21384;-71
2022/09/26 14:26:28;;;;;;;6.10;5.50;;;;;;;17.30;67.10;99160.63;1705527;84;21155;-70
2022/09/26 14:29:16;;;;;;;8.50;6.25;;;;;;;17.30;64.89;99152.47;1706582;83;21115;-68
2022/09/26 14:31:48;;;;;;;7.97;5.58;;;;;;;17.25;63.78;99151.22;1719848;83;20988;-68
2022/09/26 14:34:20;;;;;;;8.83;5.87;;;;;;;17.24;63.31;99153.69;1701127;83;21579;-68
2022/09/26 14:36:48;;;;;;;10.20;6.40;;;;;;;17.22;63.48;99149.09;1739655;82;22288;-70
2022/09/26 14:39:30;;;;;;;11.00;5.90;;;;;;;17.18;63.71;99143.48;1747937;82;21020;-69
2022/09/26 14:42:06;;;;;;;;;;;;;;;17.17;63.51;99139.73;1750535;82;21150;-71
2022/09/26 14:44:33;;;;;;;12.20;6.03;;;;;;;17.20;63.38;99139.11;1746688;82;21008;-71
2022/09/26 14:47:00;;;;;;;9.18;5.97;;;;;;;17.20;63.07;99135.84;1677937;82;21035;-83
2022/09/26 14:49:28;;;;;;;5.08;4.60;;;;;;;17.17;62.37;99128.28;1705233;82;21046;-77
2022/09/26 14:51:58;;;;;;;17.02;5.85;;;;;;;17.18;62.03;99123.65;1748081;82;21037;-77
2022/09/26 14:54:30;;;;;;;12.93;8.38;;;;;;;17.14;63.02;99123.47;1747859;81;21092;-76
2022/09/26 14:57:01;;;;;;;16.35;10.35;;;;;;;17.07;64.65;99117.66;1717205;81;20986;-77
2022/09/26 14:59:38;;;;;;;14.00;8.73;;;;;;;17.05;65.75;99117.70;1747942;82;21001;-79
2022/09/26 15:02:35;;;;;;;13.22;8.83;;;;;;;17.04;66.35;99126.95;1746551;80;21034;-75
2022/09/26 15:05:16;;;;;;;18.32;9.45;;;;;;;17.00;67.59;99126.78;1724352;82;21082;-70
2022/09/26 15:07:48;;;;;;;11.80;8.00;;;;;;;16.96;68.44;99123.06;1722187;82;21066;-73
2022/09/26 15:10:38;;;;;;;12.37;8.37;;;;;;;16.90;69.26;99127.80;1692706;84;21063;-70
2022/09/26 15:13:18;;;;;;;13.72;8.03;;;;;;;16.79;69.99;99128.31;1700492;84;21165;-70
2022/09/26 15:16:31;;;;;;;11.63;8.60;;;;;;;16.70;70.44;99121.99;1703533;84;21066;-71
2022/09/26 15:19:11;;;;;;;10.18;7.62;;;;;;;16.66;70.67;99121.80;1690095;84;21039;-71
2022/09/26 15:21:46;;;;;;;10.82;7.78;;;;;;;16.57;70.72;99114.89;1697148;84;22010;-69
2022/09/26 15:24:35;;;;;;;13.83;7.33;;;;;;;16.52;71.04;99110.93;1701980;84;22174;-70
2022/09/26 15:27:18;;;;;;;15.32;8.43;;;;;;;16.42;71.79;99112.48;1702301;84;21093;-69
2022/09/26 15:29:50;;;;;;;10.63;7.25;;;;;;;16.34;72.29;99109.68;1680260;84;20998;-69
2022/09/26 15:32:25;;;;;;;10.72;7.83;;;;;;;16.24;72.46;99110.69;1704342;84;21089;-71
2022/09/26 15:34:53;;;;;;;11.25;9.15;;;;;;;16.21;72.53;99111.27;1703468;84;21100;-70
2022/09/26 15:37:28;;;;;;;13.15;10.75;;;;;;;16.23;72.50;99118.56;1690040;84;20998;-71
2022/09/26 15:39:55;;;;;;;15.50;10.65;;;;;;;16.21;72.69;99109.13;1674678;85;21029;-70
2022/09/26 15:45:25;;;;;;;11.85;8.88;;;;;;;16.16;73.44;99104.61;1667431;84;21046;-69
2022/09/26 15:47:48;;;;;;;12.78;11.43;;;;;;;16.12;73.94;99103.02;1702198;84;21787;-76
2022/09/26 15:50:33;;;;;;;25.97;23.07;;;;;;;16.09;74.56;99102.83;1703017;84;21055;-71
2022/09/26 15:53:38;;;;;;;16.85;13.40;;;;;;;16.04;75.31;99102.37;1706100;83;21038;-69
2022/09/26 15:56:12;;;;;;;21.55;12.63;;;;;;;15.98;76.29;99098.69;1704163;84;21039;-71
2022/09/26 15:59:03;;;;;;;14.85;13.03;;;;;;;15.89;77.58;99096.42;1704369;84;21070;-75
2022/09/26 16:01:30;;;;;;;15.88;11.12;;;;;;;15.81;78.50;99095.21;1691477;84;21137;-75
2022/09/26 16:04:07;;;;;;;14.40;11.93;;;;;;;15.76;78.97;99098.02;1767139;80;21000;-70
2022/09/26 16:06:36;;;;;;;15.38;12.03;;;;;;;15.74;79.32;99098.04;1751712;80;21077;-70
2022/09/26 16:09:20;;;;;;;15.43;12.60;;;;;;;15.68;79.87;99099.48;1756641;81;21360;-70
2022/09/26 16:11:55;;;;;;;13.20;11.90;;;;;;;15.63;80.39;99104.22;1730371;82;21018;-71
2022/09/26 16:14:38;;;;;;;15.40;12.10;;;;;;;15.62;80.67;99102.59;1746442;82;21534;-72
2022/09/26 16:17:35;;;;;;;13.60;12.18;;;;;;;15.63;80.70;99097.44;1748637;80;20974;-72
2022/09/26 16:20:16;;;;;;;15.32;12.98;;;;;;;15.60;80.78;99098.82;1748106;82;21074;-72
2022/09/26 16:22:45;;;;;;;14.80;12.03;;;;;;;15.59;81.04;99097.75;1743911;80;21517;-71
2022/09/26 16:25:26;;;;;;;19.50;17.42;;;;;;;15.62;81.15;99093.11;1737500;82;21062;-73
2022/09/26 16:28:10;;;;;;;16.17;13.22;;;;;;;15.61;81.28;99092.30;1741674;80;21905;-72
2022/09/26 16:31:00;;;;;;;16.82;11.75;;;;;;;15.57;81.35;99094.00;1730828;82;21173;-74
2022/09/26 16:33:41;;;;;;;16.93;12.18;;;;;;;15.50;81.83;99092.72;1742969;82;21479;-75
2022/09/26 16:36:19;;;;;;;16.27;11.73;;;;;;;15.40;82.09;99087.47;1715828;83;21106;-71
2022/09/26 16:38:54;;;;;;;26.50;12.13;;;;;;;15.34;82.34;99082.70;1691601;84;21103;-71
2022/09/26 16:41:41;;;;;;;14.20;10.28;;;;;;;15.25;82.60;99082.55;1718397;83;21197;-76
2022/09/26 16:44:39;;;;;;;18.98;10.58;;;;;;;15.15;82.84;99088.16;1709784;83;21039;-73
2022/09/26 16:47:28;;;;;;;18.85;13.32;;;;;;;15.03;83.33;99088.33;1740594;82;21065;-73
2022/09/26 16:49:55;;;;;;;19.23;15.72;;;;;;;14.97;83.60;99084.07;1740928;82;21057;-72
2022/09/26 16:52:34;;;;;;;22.82;15.85;;;;;;;14.91;84.19;99079.30;1723497;82;21046;-70
2022/09/26 16:55:07;;;;;;;13.75;10.53;;;;;;;14.92;84.59;99078.19;1740143;82;21225;-69
2022/09/26 16:57:46;;;;;;;13.75;10.72;;;;;;;14.93;84.68;99071.68;1739767;82;21022;-69
2022/09/26 17:03:03;;;;;;;13.05;11.75;;;;;;;14.93;84.71;99066.81;1711166;83;22108;-69
2022/09/26 17:05:30;;;;;;;16.95;13.62;;;;;;;14.95;85.06;99063.27;1694714;83;20904;-72
2022/09/26 17:07:57;;;;;;;19.73;13.05;;;;;;;14.97;85.00;99059.70;1700244;82;21166;-73
2022/09/26 17:10:24;;;;;;;16.87;12.15;;;;;;;14.98;84.89;99061.31;1755503;81;20982;-72
2022/09/26 17:12:52;;;;;;;20.30;13.30;;;;;;;14.95;84.77;99061.92;1748855;82;21007;-76
2022/09/26 17:15:25;;;;;;;17.52;12.70;;;;;;;14.93;84.59;99055.98;1740722;82;21030;-72
2022/09/26 17:17:53;;;;;;;16.67;12.33;;;;;;;14.89;84.64;99053.06;1732152;81;20977;-72
2022/09/26 17:20:21;;;;;;;20.05;11.55;;;;;;;14.84;85.20;99062.06;1722114;82;21031;-71
2022/09/26 17:22:47;;;;;;;23.05;15.43;;;;;;;14.80;85.59;99056.98;1735410;82;20978;-74
2022/09/26 17:25:14;;;;;;;13.50;12.15;;;;;;;14.75;86.23;99054.89;1728713;82;21040;-72
2022/09/26 17:27:41;;;;;;;13.25;10.50;;;;;;;14.66;86.85;99057.45;1730636;81;20967;-72
2022/09/26 17:30:17;;;;;;;30.55;25.50;;;;;;;14.63;87.24;99054.50;1737208;82;21259;-71
2022/09/26 17:32:48;;;;;;;13.55;12.07;;;;;;;14.61;87.20;99054.81;1728654;83;21140;-70
2022/09/26 17:35:26;;;;;;;14.18;11.05;;;;;;;14.63;86.96;99059.38;1737016;82;21499;-71
2022/09/26 17:37:54;;;;;;;18.82;11.33;;;;;;;14.62;86.65;99059.14;1740301;82;21042;-72
2022/09/26 17:40:28;;;;;;;15.38;12.43;;;;;;;14.59;86.94;99063.77;1735987;81;21017;-71
2022/09/26 17:42:56;;;;;;;17.67;11.83;;;;;;;14.55;87.08;99052.45;1733359;81;21097;-69
2022/09/26 17:45:33;;;;;;;12.68;10.93;;;;;;;14.49;88.05;99056.32;1740898;80;21022;-73
2022/09/26 17:48:03;;;;;;;13.60;11.50;;;;;;;14.32;89.89;99059.50;1710936;83;21552;-72
2022/09/26 17:50:31;;;;;;;14.18;9.88;;;;;;;14.15;90.90;99057.25;1668346;85;20936;-73
2022/09/26 17:53:00;;;;;;;12.25;10.45;;;;;;;14.07;91.21;99051.67;1712560;83;21556;-73
2022/09/26 17:55:29;;;;;;;16.55;12.43;;;;;;;14.06;91.87;99044.66;1712260;82;20940;-73
2022/09/26 17:57:57;;;;;;;16.60;14.03;;;;;;;14.02;91.83;99040.92;1698413;83;21547;-72
2022/09/26 18:00:24;;;;;;;15.18;12.28;;;;;;;14.00;92.22;99041.77;1714210;83;21010;-76
2022/09/26 18:02:59;;;;;;;16.95;12.65;;;;;;;13.98;92.69;99036.64;1712490;83;21053;-73
2022/09/26 18:05:29;;;;;;;19.25;12.95;;;;;;;13.91;92.93;99036.97;1715692;82;21109;-72
2022/09/26 18:08:06;;;;;;;16.93;12.70;;;;;;;13.88;93.03;99034.05;1690805;83;21108;-73
2022/09/26 18:10:34;;;;;;;17.42;14.05;;;;;;;13.90;93.25;99033.23;1683664;84;21796;-72
2022/09/26 18:13:04;;;;;;;15.98;12.88;;;;;;;13.88;93.22;99031.34;1668400;86;21067;-72
2022/09/26 18:15:31;;;;;;;17.27;12.63;;;;;;;13.87;93.45;99030.53;1677010;83;21001;-73
2022/09/26 18:17:59;;;;;;;13.20;11.78;;;;;;;13.85;92.95;99041.39;1673297;84;21558;-71
2022/09/26 18:20:37;;;;;;;18.82;13.08;;;;;;;13.82;93.45;99042.75;1678060;84;21666;-73
2022/09/26 18:23:06;;;;;;;18.70;13.55;;;;;;;13.75;93.42;99037.44;1692136;84;21191;-73
2022/09/26 18:25:33;;;;;;;19.95;14.23;;;;;;;13.74;93.83;99033.13;1668576;84;21627;-74
2022/09/26 18:28:04;;;;;;;22.10;14.85;;;;;;;13.73;94.04;99034.20;1695269;84;21072;-74
2022/09/26 18:30:31;;;;;;;22.25;14.60;;;;;;;13.75;94.06;99027.98;1692109;84;21071;-74
2022/09/26 18:32:58;;;;;;;17.07;14.38;;;;;;;13.74;94.10;99030.42;1694778;84;21121;-74
2022/09/26 18:35:30;;;;;;;17.35;13.08;;;;;;;13.72;93.96;99032.59;1689434;84;21233;-76
2022/09/26 18:37:54;;;;;;;16.20;14.50;;;;;;;13.71;94.22;99025.59;1681700;84;21537;-74
2022/09/26 18:40:22;;;;;;;16.95;13.85;;;;;;;13.70;94.44;99030.19;1688916;84;20994;-76
2022/09/26 18:42:50;;;;;;;16.10;14.38;;;;;;;13.68;94.58;99024.80;1696332;84;21022;-75
2022/09/26 18:45:27;;;;;;;13.25;11.85;;;;;;;13.69;94.78;99039.38;1691956;84;21047;-74
2022/09/26 18:47:54;;;;;;;12.40;11.10;;;;;;;13.72;94.90;99045.56;1700896;84;21579;-73
2022/09/26 18:50:35;;;;;;;15.90;12.73;;;;;;;13.64;94.55;99047.55;1700586;84;21018;-76
2022/09/26 18:53:17;;;;;;;20.50;16.62;;;;;;;13.52;94.93;99046.56;1699784;84;21065;-74
2022/09/26 18:58:31;;;;;;;16.85;11.78;;;;;;;13.37;95.94;99048.08;1675663;84;21040;-76
2022/09/26 19:01:04;;;;;;;12.95;10.75;;;;;;;13.36;96.15;99043.76;1692092;82;22322;-75
2022/09/26 19:03:37;;;;;;;11.97;10.78;;;;;;;13.32;96.17;99035.97;1674531;84;21077;-81
2022/09/26 19:06:22;;;;;;;18.73;16.12;;;;;;;13.34;96.31;99036.47;1715346;83;21094;-75
2022/09/26 19:08:58;;;;;;;18.17;15.13;;;;;;;13.31;96.55;99032.19;1744515;80;21002;-81
2022/09/26 19:11:30;;;;;;;18.00;13.68;;;;;;;13.28;96.93;99027.36;1720944;80;21116;-78
2022/09/26 19:14:10;;;;;;;17.73;14.00;;;;;;;13.30;97.45;99020.58;1731275;82;21112;-76
2022/09/26 19:16:37;;;;;;;19.37;13.53;;;;;;;13.30;97.75;99019.23;1727587;82;21055;-81
2022/09/26 19:19:05;;;;;;;14.35;12.95;;;;;;;13.19;98.53;99019.04;1721573;82;21058;-77
2022/09/26 19:21:38;;;;;;;11.60;10.32;;;;;;;13.10;99.04;99012.61;1738003;82;21069;-82
2022/09/26 19:24:19;;;;;;;;;;;;;;;13.07;99.70;98998.34;1737268;81;21094;-83
2022/09/26 19:27:00;;;;;;;12.58;10.43;;;;;;;13.04;100.00;98975.40;1733915;82;20944;-79
2022/09/26 19:29:34;;;;;;;16.12;10.90;;;;;;;13.06;100.00;98968.38;1679890;85;21634;-79
2022/09/26 19:32:02;;;;;;;11.10;10.05;;;;;;;13.06;100.00;98971.08;1720395;82;21041;-76
2022/09/26 19:34:32;;;;;;;13.65;10.85;;;;;;;13.08;99.97;98968.37;1724044;82;20946;-76
2022/09/26 19:37:02;;;;;;;10.30;9.30;;;;;;;12.99;99.37;98974.66;1741363;82;21128;-77
2022/09/26 19:39:33;;;;;;;10.70;8.25;;;;;;;12.92;99.47;98978.21;1742618;82;21171;-79
2022/09/26 19:42:02;;;;;;;12.45;11.15;;;;;;;12.89;99.56;98972.85;1737714;81;80838;-77
2022/09/26 19:44:29;;;;;;;12.07;9.75;;;;;;;12.91;99.60;98975.25;1735754;80;20971;-71
2022/09/26 19:46:58;;;;;;;10.75;9.58;;;;;;;12.92;99.75;98970.12;1722578;82;20888;-74
2022/09/26 19:49:24;;;;;;;10.32;8.98;;;;;;;12.89;99.97;98977.44;1747667;82;20871;-76
2022/09/26 19:51:51;;;;;;;10.40;9.35;;;;;;;12.85;100.00;98977.75;1705626;82;21108;-78
2022/09/26 19:54:20;;;;;;;12.65;10.75;;;;;;;12.84;100.00;98972.89;1701296;83;21022;-75
2022/09/26 19:56:48;;;;;;;15.00;11.12;;;;;;;12.82;100.00;98968.30;1716217;82;21078;-75
2022/09/26 19:59:18;;;;;;;11.40;10.20;;;;;;;12.78;100.00;98961.05;1716343;82;21476;-74
2022/09/26 20:01:46;;;;;;;11.33;10.25;;;;;;;12.79;100.00;98966.72;1702726;83;21002;-76
2022/09/26 20:04:16;;;;;;;12.47;10.00;;;;;;;12.76;100.00;98961.91;1714048;82;21364;-74
2022/09/26 20:06:43;;;;;;;11.00;9.98;;;;;;;12.74;100.00;98962.71;1716436;82;21017;-77
2022/09/26 20:09:16;;;;;;;12.68;10.75;;;;;;;12.74;100.00;98958.13;1716215;82;21042;-72
2022/09/26 20:11:45;;;;;;;14.53;10.65;;;;;;;12.74;100.00;98940.59;1705513;82;21075;-75
2022/09/26 20:14:22;;;;;;;10.32;9.13;;;;;;;12.65;100.00;98947.13;1715905;83;21689;-77
2022/09/26 20:17:01;;;;;;;12.73;10.18;;;;;;;12.60;100.00;98940.42;1699624;83;21569;-77
2022/09/26 20:19:36;;;;;;;10.25;9.25;;;;;;;12.57;100.00;98926.67;1716629;83;21067;-79
2022/09/26 20:22:06;;;;;;;9.20;8.38;;;;;;;12.57;100.00;98933.41;1716670;83;21018;-75